sensor_id;sensor_type;location;lat;lon;timestamp;P1;durP1;ratioP1;P2;durP2;ratioP2
28862;SDS011;15994;51.796;13.006;2023-05-07T00:00:55;17.50;;;12.70;;
28862;SDS011;15994;51.796;13.006;2023-05-07T00:03:24;17.15;;;13.13;;
28862;SDS011;15994;51.796;13.006;2023-05-07T00:05:51;18.77;;;13.43;;
28862;SDS011;15994;51.796;13.006;2023-05-07T00:08:18;19.02;;;13.30;;
28862;SDS011;15994;51.796;13.006;2023-05-07T00:10:45;20.08;;;14.55;;
28862;SDS011;15994;51.796;13.006;2023-05-07T00:13:12;19.95;;;14.73;;
28862;SDS011;15994;51.796;13.006;2023-05-07T00:15:38;20.02;;;14.00;;
28862;SDS011;15994;51.796;13.006;2023-05-07T00:18:05;21.48;;;14.02;;
28862;SDS011;15994;51.796;13.006;2023-05-07T00:20:32;18.98;;;13.95;;
28862;SDS011;15994;51.796;13.006;2023-05-07T00:22:58;17.45;;;13.80;;
28862;SDS011;15994;51.796;13.006;2023-05-07T00:25:25;20.20;;;14.05;;
28862;SDS011;15994;51.796;13.006;2023-05-07T00:27:51;18.27;;;14.77;;
28862;SDS011;15994;51.796;13.006;2023-05-07T00:30:18;19.90;;;14.73;;
28862;SDS011;15994;51.796;13.006;2023-05-07T00:32:44;22.15;;;14.65;;
28862;SDS011;15994;51.796;13.006;2023-05-07T00:35:13;22.00;;;14.75;;
28862;SDS011;15994;51.796;13.006;2023-05-07T00:37:40;18.42;;;14.55;;
28862;SDS011;15994;51.796;13.006;2023-05-07T00:40:06;21.48;;;14.10;;
28862;SDS011;15994;51.796;13.006;2023-05-07T00:42:33;18.17;;;13.50;;
28862;SDS011;15994;51.796;13.006;2023-05-07T00:45:00;21.40;;;13.80;;
28862;SDS011;15994;51.796;13.006;2023-05-07T00:47:26;18.77;;;14.00;;
28862;SDS011;15994;51.796;13.006;2023-05-07T00:49:53;16.55;;;13.65;;
28862;SDS011;15994;51.796;13.006;2023-05-07T00:52:20;16.48;;;13.43;;
28862;SDS011;15994;51.796;13.006;2023-05-07T00:54:49;16.98;;;13.45;;
28862;SDS011;15994;51.796;13.006;2023-05-07T00:57:16;17.00;;;13.38;;
28862;SDS011;15994;51.796;13.006;2023-05-07T00:59:43;18.80;;;13.50;;
28862;SDS011;15994;51.796;13.006;2023-05-07T01:02:09;17.88;;;13.65;;
28862;SDS011;15994;51.796;13.006;2023-05-07T01:04:36;17.70;;;13.00;;
28862;SDS011;15994;51.796;13.006;2023-05-07T01:07:03;17.67;;;13.18;;
28862;SDS011;15994;51.796;13.006;2023-05-07T01:09:31;16.20;;;13.23;;
28862;SDS011;15994;51.796;13.006;2023-05-07T01:11:57;19.15;;;13.48;;
28862;SDS011;15994;51.796;13.006;2023-05-07T01:14:25;15.00;;;11.52;;
28862;SDS011;15994;51.796;13.006;2023-05-07T01:16:52;16.38;;;12.68;;
28862;SDS011;15994;51.796;13.006;2023-05-07T01:19:19;17.40;;;13.73;;
28862;SDS011;15994;51.796;13.006;2023-05-07T01:21:46;14.70;;;12.45;;
28862;SDS011;15994;51.796;13.006;2023-05-07T01:24:14;15.48;;;12.48;;
28862;SDS011;15994;51.796;13.006;2023-05-07T01:26:42;16.98;;;12.82;;
28862;SDS011;15994;51.796;13.006;2023-05-07T01:29:09;17.58;;;12.98;;
28862;SDS011;15994;51.796;13.006;2023-05-07T01:31:36;16.45;;;12.55;;
28862;SDS011;15994;51.796;13.006;2023-05-07T01:34:03;15.45;;;12.23;;
28862;SDS011;15994;51.796;13.006;2023-05-07T01:36:33;14.80;;;12.50;;
28862;SDS011;15994;51.796;13.006;2023-05-07T01:39:00;17.75;;;12.38;;
28862;SDS011;15994;51.796;13.006;2023-05-07T01:41:28;16.60;;;11.73;;
28862;SDS011;15994;51.796;13.006;2023-05-07T01:43:54;15.77;;;11.93;;
28862;SDS011;15994;51.796;13.006;2023-05-07T01:46:23;15.70;;;12.10;;
28862;SDS011;15994;51.796;13.006;2023-05-07T01:48:52;12.85;;;10.80;;
28862;SDS011;15994;51.796;13.006;2023-05-07T01:51:18;13.55;;;11.43;;
28862;SDS011;15994;51.796;13.006;2023-05-07T01:53:46;14.80;;;10.68;;
28862;SDS011;15994;51.796;13.006;2023-05-07T01:56:15;16.75;;;11.23;;
28862;SDS011;15994;51.796;13.006;2023-05-07T01:58:44;13.40;;;10.20;;
28862;SDS011;15994;51.796;13.006;2023-05-07T02:01:12;11.93;;;10.48;;
28862;SDS011;15994;51.796;13.006;2023-05-07T02:03:39;14.63;;;11.98;;
28862;SDS011;15994;51.796;13.006;2023-05-07T02:06:06;15.30;;;11.23;;
28862;SDS011;15994;51.796;13.006;2023-05-07T02:08:32;14.40;;;11.18;;
28862;SDS011;15994;51.796;13.006;2023-05-07T02:10:59;15.35;;;11.02;;
28862;SDS011;15994;51.796;13.006;2023-05-07T02:13:28;13.20;;;10.85;;
28862;SDS011;15994;51.796;13.006;2023-05-07T02:15:56;13.82;;;10.50;;
28862;SDS011;15994;51.796;13.006;2023-05-07T02:18:23;14.20;;;11.32;;
28862;SDS011;15994;51.796;13.006;2023-05-07T02:20:49;14.57;;;11.55;;
28862;SDS011;15994;51.796;13.006;2023-05-07T02:23:16;14.43;;;10.45;;
28862;SDS011;15994;51.796;13.006;2023-05-07T02:25:42;15.85;;;11.48;;
28862;SDS011;15994;51.796;13.006;2023-05-07T02:28:09;14.00;;;10.95;;
28862;SDS011;15994;51.796;13.006;2023-05-07T02:30:36;14.18;;;11.52;;
28862;SDS011;15994;51.796;13.006;2023-05-07T02:33:03;13.32;;;11.48;;
28862;SDS011;15994;51.796;13.006;2023-05-07T02:35:30;14.10;;;11.57;;
28862;SDS011;15994;51.796;13.006;2023-05-07T02:37:56;13.60;;;10.77;;
28862;SDS011;15994;51.796;13.006;2023-05-07T02:40:23;12.10;;;10.73;;
28862;SDS011;15994;51.796;13.006;2023-05-07T02:42:49;13.75;;;11.32;;
28862;SDS011;15994;51.796;13.006;2023-05-07T02:45:16;14.45;;;11.60;;
28862;SDS011;15994;51.796;13.006;2023-05-07T02:47:42;14.98;;;11.73;;
28862;SDS011;15994;51.796;13.006;2023-05-07T02:50:09;14.15;;;11.48;;
28862;SDS011;15994;51.796;13.006;2023-05-07T02:52:36;14.48;;;11.25;;
28862;SDS011;15994;51.796;13.006;2023-05-07T02:55:03;12.40;;;11.10;;
28862;SDS011;15994;51.796;13.006;2023-05-07T02:57:29;14.43;;;11.02;;
28862;SDS011;15994;51.796;13.006;2023-05-07T02:59:57;14.50;;;10.50;;
28862;SDS011;15994;51.796;13.006;2023-05-07T03:02:24;12.50;;;10.32;;
28862;SDS011;15994;51.796;13.006;2023-05-07T03:04:50;12.98;;;10.30;;
28862;SDS011;15994;51.796;13.006;2023-05-07T03:07:17;12.23;;;9.90;;
28862;SDS011;15994;51.796;13.006;2023-05-07T03:09:43;13.38;;;10.40;;
28862;SDS011;15994;51.796;13.006;2023-05-07T03:12:10;11.93;;;10.23;;
28862;SDS011;15994;51.796;13.006;2023-05-07T03:14:36;13.07;;;10.18;;
28862;SDS011;15994;51.796;13.006;2023-05-07T03:17:03;12.10;;;10.23;;
28862;SDS011;15994;51.796;13.006;2023-05-07T03:19:29;11.50;;;10.02;;
28862;SDS011;15994;51.796;13.006;2023-05-07T03:21:56;12.80;;;10.93;;
28862;SDS011;15994;51.796;13.006;2023-05-07T03:24:23;13.20;;;10.68;;
28862;SDS011;15994;51.796;13.006;2023-05-07T03:26:49;12.40;;;9.98;;
28862;SDS011;15994;51.796;13.006;2023-05-07T03:29:16;11.88;;;9.85;;
28862;SDS011;15994;51.796;13.006;2023-05-07T03:31:42;10.80;;;9.65;;
28862;SDS011;15994;51.796;13.006;2023-05-07T03:34:10;10.73;;;9.13;;
28862;SDS011;15994;51.796;13.006;2023-05-07T03:36:36;11.18;;;9.43;;
28862;SDS011;15994;51.796;13.006;2023-05-07T03:39:03;11.82;;;9.15;;
28862;SDS011;15994;51.796;13.006;2023-05-07T03:41:29;11.98;;;9.35;;
28862;SDS011;15994;51.796;13.006;2023-05-07T03:43:56;11.38;;;8.48;;
28862;SDS011;15994;51.796;13.006;2023-05-07T03:46:22;10.20;;;9.02;;
28862;SDS011;15994;51.796;13.006;2023-05-07T03:48:51;10.40;;;8.57;;
28862;SDS011;15994;51.796;13.006;2023-05-07T03:51:17;9.70;;;8.27;;
28862;SDS011;15994;51.796;13.006;2023-05-07T03:53:44;11.38;;;8.95;;
28862;SDS011;15994;51.796;13.006;2023-05-07T03:56:10;9.68;;;8.00;;
28862;SDS011;15994;51.796;13.006;2023-05-07T03:58:37;10.77;;;9.10;;
28862;SDS011;15994;51.796;13.006;2023-05-07T04:01:04;9.93;;;8.13;;
28862;SDS011;15994;51.796;13.006;2023-05-07T04:03:30;9.82;;;7.63;;
28862;SDS011;15994;51.796;13.006;2023-05-07T04:05:57;9.60;;;8.02;;
28862;SDS011;15994;51.796;13.006;2023-05-07T04:08:23;10.82;;;8.32;;
28862;SDS011;15994;51.796;13.006;2023-05-07T04:10:54;8.75;;;7.70;;
28862;SDS011;15994;51.796;13.006;2023-05-07T04:13:24;8.55;;;7.57;;
28862;SDS011;15994;51.796;13.006;2023-05-07T04:15:51;10.23;;;7.75;;
28862;SDS011;15994;51.796;13.006;2023-05-07T04:18:18;8.35;;;7.32;;
28862;SDS011;15994;51.796;13.006;2023-05-07T04:20:45;10.18;;;7.95;;
28862;SDS011;15994;51.796;13.006;2023-05-07T04:23:11;9.30;;;7.10;;
28862;SDS011;15994;51.796;13.006;2023-05-07T04:25:38;9.05;;;7.15;;
28862;SDS011;15994;51.796;13.006;2023-05-07T04:28:04;9.73;;;7.57;;
28862;SDS011;15994;51.796;13.006;2023-05-07T04:30:31;9.07;;;7.30;;
28862;SDS011;15994;51.796;13.006;2023-05-07T04:32:57;9.13;;;7.20;;
28862;SDS011;15994;51.796;13.006;2023-05-07T04:35:24;8.85;;;7.95;;
28862;SDS011;15994;51.796;13.006;2023-05-07T04:37:51;7.80;;;6.88;;
28862;SDS011;15994;51.796;13.006;2023-05-07T04:40:17;9.93;;;7.25;;
28862;SDS011;15994;51.796;13.006;2023-05-07T04:42:45;8.00;;;7.03;;
28862;SDS011;15994;51.796;13.006;2023-05-07T04:45:11;8.95;;;7.05;;
28862;SDS011;15994;51.796;13.006;2023-05-07T04:47:38;7.45;;;6.10;;
28862;SDS011;15994;51.796;13.006;2023-05-07T04:50:05;7.03;;;5.80;;
28862;SDS011;15994;51.796;13.006;2023-05-07T04:52:33;7.50;;;5.85;;
28862;SDS011;15994;51.796;13.006;2023-05-07T04:55:00;6.80;;;5.60;;
28862;SDS011;15994;51.796;13.006;2023-05-07T04:57:26;6.88;;;5.68;;
28862;SDS011;15994;51.796;13.006;2023-05-07T04:59:53;6.60;;;4.50;;
28862;SDS011;15994;51.796;13.006;2023-05-07T05:02:20;6.35;;;4.45;;
28862;SDS011;15994;51.796;13.006;2023-05-07T05:04:46;9.07;;;4.55;;
28862;SDS011;15994;51.796;13.006;2023-05-07T05:07:13;4.82;;;4.10;;
28862;SDS011;15994;51.796;13.006;2023-05-07T05:09:39;5.43;;;4.55;;
28862;SDS011;15994;51.796;13.006;2023-05-07T05:12:06;5.97;;;4.63;;
28862;SDS011;15994;51.796;13.006;2023-05-07T05:14:33;6.35;;;4.95;;
28862;SDS011;15994;51.796;13.006;2023-05-07T05:16:59;7.40;;;4.97;;
28862;SDS011;15994;51.796;13.006;2023-05-07T05:19:26;5.85;;;4.80;;
28862;SDS011;15994;51.796;13.006;2023-05-07T05:21:52;7.45;;;4.93;;
28862;SDS011;15994;51.796;13.006;2023-05-07T05:24:19;7.07;;;5.45;;
28862;SDS011;15994;51.796;13.006;2023-05-07T05:26:45;8.30;;;5.65;;
28862;SDS011;15994;51.796;13.006;2023-05-07T05:29:12;7.15;;;5.45;;
28862;SDS011;15994;51.796;13.006;2023-05-07T05:31:38;8.00;;;5.85;;
28862;SDS011;15994;51.796;13.006;2023-05-07T05:34:06;9.32;;;6.47;;
28862;SDS011;15994;51.796;13.006;2023-05-07T05:36:32;7.80;;;5.60;;
28862;SDS011;15994;51.796;13.006;2023-05-07T05:38:59;8.13;;;6.40;;
28862;SDS011;15994;51.796;13.006;2023-05-07T05:41:25;8.57;;;6.03;;
28862;SDS011;15994;51.796;13.006;2023-05-07T05:43:52;10.57;;;5.90;;
28862;SDS011;15994;51.796;13.006;2023-05-07T05:46:19;7.85;;;6.10;;
28862;SDS011;15994;51.796;13.006;2023-05-07T05:48:45;9.75;;;6.68;;
28862;SDS011;15994;51.796;13.006;2023-05-07T05:51:12;9.88;;;7.10;;
28862;SDS011;15994;51.796;13.006;2023-05-07T05:53:38;12.10;;;7.82;;
28862;SDS011;15994;51.796;13.006;2023-05-07T05:56:05;8.77;;;7.55;;
28862;SDS011;15994;51.796;13.006;2023-05-07T05:58:32;11.68;;;8.07;;
28862;SDS011;15994;51.796;13.006;2023-05-07T06:00:58;10.45;;;9.13;;
28862;SDS011;15994;51.796;13.006;2023-05-07T06:03:27;12.90;;;9.98;;
28862;SDS011;15994;51.796;13.006;2023-05-07T06:05:54;14.88;;;10.15;;
28862;SDS011;15994;51.796;13.006;2023-05-07T06:08:20;12.55;;;9.77;;
28862;SDS011;15994;51.796;13.006;2023-05-07T06:10:47;16.00;;;10.27;;
28862;SDS011;15994;51.796;13.006;2023-05-07T06:13:13;14.30;;;9.90;;
28862;SDS011;15994;51.796;13.006;2023-05-07T06:15:40;18.35;;;11.40;;
28862;SDS011;15994;51.796;13.006;2023-05-07T06:18:06;14.60;;;10.60;;
28862;SDS011;15994;51.796;13.006;2023-05-07T06:20:33;13.75;;;11.25;;
28862;SDS011;15994;51.796;13.006;2023-05-07T06:22:59;15.82;;;11.35;;
28862;SDS011;15994;51.796;13.006;2023-05-07T06:25:26;14.25;;;10.40;;
28862;SDS011;15994;51.796;13.006;2023-05-07T06:27:52;15.18;;;10.57;;
28862;SDS011;15994;51.796;13.006;2023-05-07T06:30:19;16.08;;;10.77;;
28862;SDS011;15994;51.796;13.006;2023-05-07T06:32:45;15.68;;;10.73;;
28862;SDS011;15994;51.796;13.006;2023-05-07T06:35:12;13.20;;;9.55;;
28862;SDS011;15994;51.796;13.006;2023-05-07T06:37:38;13.48;;;10.00;;
28862;SDS011;15994;51.796;13.006;2023-05-07T06:40:07;13.75;;;9.82;;
28862;SDS011;15994;51.796;13.006;2023-05-07T06:42:35;12.65;;;9.10;;
28862;SDS011;15994;51.796;13.006;2023-05-07T06:45:02;12.05;;;8.85;;
28862;SDS011;15994;51.796;13.006;2023-05-07T06:47:28;13.55;;;9.07;;
28862;SDS011;15994;51.796;13.006;2023-05-07T06:49:55;10.60;;;8.30;;
28862;SDS011;15994;51.796;13.006;2023-05-07T06:52:21;12.63;;;8.55;;
28862;SDS011;15994;51.796;13.006;2023-05-07T06:54:48;11.45;;;8.27;;
28862;SDS011;15994;51.796;13.006;2023-05-07T06:57:14;10.75;;;8.35;;
28862;SDS011;15994;51.796;13.006;2023-05-07T06:59:41;10.10;;;7.82;;
28862;SDS011;15994;51.796;13.006;2023-05-07T07:02:07;9.73;;;8.00;;
28862;SDS011;15994;51.796;13.006;2023-05-07T07:04:34;9.65;;;7.38;;
28862;SDS011;15994;51.796;13.006;2023-05-07T07:07:01;10.70;;;6.57;;
28862;SDS011;15994;51.796;13.006;2023-05-07T07:09:27;8.02;;;6.45;;
28862;SDS011;15994;51.796;13.006;2023-05-07T07:11:54;10.15;;;7.18;;
28862;SDS011;15994;51.796;13.006;2023-05-07T07:14:20;9.32;;;6.80;;
28862;SDS011;15994;51.796;13.006;2023-05-07T07:16:47;9.70;;;6.75;;
28862;SDS011;15994;51.796;13.006;2023-05-07T07:19:13;10.23;;;6.93;;
28862;SDS011;15994;51.796;13.006;2023-05-07T07:21:41;9.60;;;7.25;;
28862;SDS011;15994;51.796;13.006;2023-05-07T07:24:08;10.35;;;7.03;;
28862;SDS011;15994;51.796;13.006;2023-05-07T07:26:34;10.90;;;7.50;;
28862;SDS011;15994;51.796;13.006;2023-05-07T07:29:01;8.40;;;6.32;;
28862;SDS011;15994;51.796;13.006;2023-05-07T07:31:27;9.85;;;6.75;;
28862;SDS011;15994;51.796;13.006;2023-05-07T07:33:54;9.18;;;6.22;;
28862;SDS011;15994;51.796;13.006;2023-05-07T07:36:20;10.70;;;7.13;;
28862;SDS011;15994;51.796;13.006;2023-05-07T07:38:47;8.02;;;6.32;;
28862;SDS011;15994;51.796;13.006;2023-05-07T07:41:13;9.30;;;6.20;;
28862;SDS011;15994;51.796;13.006;2023-05-07T07:43:40;9.65;;;6.50;;
28862;SDS011;15994;51.796;13.006;2023-05-07T07:46:06;12.73;;;8.80;;
28862;SDS011;15994;51.796;13.006;2023-05-07T07:48:33;9.80;;;8.00;;
28862;SDS011;15994;51.796;13.006;2023-05-07T07:50:59;10.68;;;7.57;;
28862;SDS011;15994;51.796;13.006;2023-05-07T07:53:26;9.18;;;6.60;;
28862;SDS011;15994;51.796;13.006;2023-05-07T07:55:52;10.05;;;6.95;;
28862;SDS011;15994;51.796;13.006;2023-05-07T07:58:19;8.50;;;6.75;;
28862;SDS011;15994;51.796;13.006;2023-05-07T08:00:47;14.05;;;10.00;;
28862;SDS011;15994;51.796;13.006;2023-05-07T08:03:13;9.77;;;6.60;;
28862;SDS011;15994;51.796;13.006;2023-05-07T08:05:41;9.23;;;7.28;;
28862;SDS011;15994;51.796;13.006;2023-05-07T08:08:08;9.70;;;7.10;;
28862;SDS011;15994;51.796;13.006;2023-05-07T08:10:35;11.43;;;8.55;;
28862;SDS011;15994;51.796;13.006;2023-05-07T08:13:03;10.60;;;7.70;;
28862;SDS011;15994;51.796;13.006;2023-05-07T08:15:30;9.95;;;7.28;;
28862;SDS011;15994;51.796;13.006;2023-05-07T08:17:57;9.80;;;7.30;;
28862;SDS011;15994;51.796;13.006;2023-05-07T08:20:25;12.65;;;10.20;;
28862;SDS011;15994;51.796;13.006;2023-05-07T08:22:51;12.45;;;9.15;;
28862;SDS011;15994;51.796;13.006;2023-05-07T08:25:18;12.73;;;9.90;;
28862;SDS011;15994;51.796;13.006;2023-05-07T08:27:44;10.77;;;8.00;;
28862;SDS011;15994;51.796;13.006;2023-05-07T08:30:11;9.55;;;7.45;;
28862;SDS011;15994;51.796;13.006;2023-05-07T08:32:38;11.70;;;8.93;;
28862;SDS011;15994;51.796;13.006;2023-05-07T08:35:05;12.00;;;9.15;;
28862;SDS011;15994;51.796;13.006;2023-05-07T08:37:32;8.63;;;7.10;;
28862;SDS011;15994;51.796;13.006;2023-05-07T08:39:58;8.07;;;6.43;;
28862;SDS011;15994;51.796;13.006;2023-05-07T08:42:25;7.28;;;5.35;;
28862;SDS011;15994;51.796;13.006;2023-05-07T08:44:54;8.20;;;6.30;;
28862;SDS011;15994;51.796;13.006;2023-05-07T08:47:24;9.48;;;6.18;;
28862;SDS011;15994;51.796;13.006;2023-05-07T08:49:58;8.75;;;6.60;;
28862;SDS011;15994;51.796;13.006;2023-05-07T08:52:24;9.35;;;7.55;;
28862;SDS011;15994;51.796;13.006;2023-05-07T08:54:52;8.90;;;7.15;;
28862;SDS011;15994;51.796;13.006;2023-05-07T08:57:18;8.50;;;6.53;;
28862;SDS011;15994;51.796;13.006;2023-05-07T08:59:46;8.07;;;5.80;;
28862;SDS011;15994;51.796;13.006;2023-05-07T09:02:13;7.43;;;5.13;;
28862;SDS011;15994;51.796;13.006;2023-05-07T09:04:40;9.25;;;5.32;;
28862;SDS011;15994;51.796;13.006;2023-05-07T09:07:07;7.88;;;5.28;;
28862;SDS011;15994;51.796;13.006;2023-05-07T09:09:33;7.32;;;5.40;;
28862;SDS011;15994;51.796;13.006;2023-05-07T09:12:00;6.75;;;5.40;;
28862;SDS011;15994;51.796;13.006;2023-05-07T09:14:27;7.78;;;5.30;;
28862;SDS011;15994;51.796;13.006;2023-05-07T09:16:55;10.18;;;6.38;;
28862;SDS011;15994;51.796;13.006;2023-05-07T09:19:23;12.05;;;7.72;;
28862;SDS011;15994;51.796;13.006;2023-05-07T09:21:57;6.32;;;4.88;;
28862;SDS011;15994;51.796;13.006;2023-05-07T09:24:33;8.90;;;5.78;;
28862;SDS011;15994;51.796;13.006;2023-05-07T09:27:01;8.23;;;5.82;;
28862;SDS011;15994;51.796;13.006;2023-05-07T09:29:28;7.40;;;5.22;;
28862;SDS011;15994;51.796;13.006;2023-05-07T09:31:59;8.70;;;5.95;;
28862;SDS011;15994;51.796;13.006;2023-05-07T09:34:27;7.05;;;5.45;;
28862;SDS011;15994;51.796;13.006;2023-05-07T09:36:54;7.85;;;5.53;;
28862;SDS011;15994;51.796;13.006;2023-05-07T09:39:21;7.40;;;5.28;;
28862;SDS011;15994;51.796;13.006;2023-05-07T09:41:49;8.35;;;5.32;;
28862;SDS011;15994;51.796;13.006;2023-05-07T09:44:17;8.57;;;5.25;;
28862;SDS011;15994;51.796;13.006;2023-05-07T09:46:44;8.88;;;5.10;;
28862;SDS011;15994;51.796;13.006;2023-05-07T09:49:16;5.75;;;4.47;;
28862;SDS011;15994;51.796;13.006;2023-05-07T09:51:48;6.13;;;5.15;;
28862;SDS011;15994;51.796;13.006;2023-05-07T09:54:17;6.57;;;4.43;;
28862;SDS011;15994;51.796;13.006;2023-05-07T09:56:44;5.75;;;4.80;;
28862;SDS011;15994;51.796;13.006;2023-05-07T09:59:12;5.85;;;4.30;;
28862;SDS011;15994;51.796;13.006;2023-05-07T10:01:40;5.78;;;4.78;;
28862;SDS011;15994;51.796;13.006;2023-05-07T10:04:08;6.05;;;5.25;;
28862;SDS011;15994;51.796;13.006;2023-05-07T10:06:35;8.35;;;6.07;;
28862;SDS011;15994;51.796;13.006;2023-05-07T10:09:02;7.25;;;6.13;;
28862;SDS011;15994;51.796;13.006;2023-05-07T10:11:30;8.15;;;5.47;;
28862;SDS011;15994;51.796;13.006;2023-05-07T10:14:04;7.80;;;5.28;;
28862;SDS011;15994;51.796;13.006;2023-05-07T10:16:32;6.75;;;4.93;;
28862;SDS011;15994;51.796;13.006;2023-05-07T10:19:02;7.78;;;5.03;;
28862;SDS011;15994;51.796;13.006;2023-05-07T10:21:30;6.85;;;4.85;;
28862;SDS011;15994;51.796;13.006;2023-05-07T10:24:04;6.20;;;4.88;;
28862;SDS011;15994;51.796;13.006;2023-05-07T10:29:03;6.10;;;4.53;;
28862;SDS011;15994;51.796;13.006;2023-05-07T10:31:37;7.50;;;4.32;;
28862;SDS011;15994;51.796;13.006;2023-05-07T10:34:14;5.75;;;4.70;;
28862;SDS011;15994;51.796;13.006;2023-05-07T10:36:47;5.70;;;4.20;;
28862;SDS011;15994;51.796;13.006;2023-05-07T10:39:16;6.05;;;4.57;;
28862;SDS011;15994;51.796;13.006;2023-05-07T10:41:43;14.27;;;8.82;;
28862;SDS011;15994;51.796;13.006;2023-05-07T10:44:09;8.00;;;5.53;;
28862;SDS011;15994;51.796;13.006;2023-05-07T10:46:36;7.78;;;5.25;;
28862;SDS011;15994;51.796;13.006;2023-05-07T10:51:31;6.82;;;4.70;;
28862;SDS011;15994;51.796;13.006;2023-05-07T10:59:30;7.20;;;5.18;;
28862;SDS011;15994;51.796;13.006;2023-05-07T11:01:59;6.28;;;5.10;;
28862;SDS011;15994;51.796;13.006;2023-05-07T11:04:28;7.38;;;5.25;;
28862;SDS011;15994;51.796;13.006;2023-05-07T11:17:35;6.43;;;4.60;;
28862;SDS011;15994;51.796;13.006;2023-05-07T11:26:03;5.13;;;4.03;;
28862;SDS011;15994;51.796;13.006;2023-05-07T11:28:37;5.18;;;3.75;;
28862;SDS011;15994;51.796;13.006;2023-05-07T11:31:07;6.10;;;3.75;;
28862;SDS011;15994;51.796;13.006;2023-05-07T11:33:38;5.25;;;3.42;;
28862;SDS011;15994;51.796;13.006;2023-05-07T11:36:05;5.72;;;3.83;;
28862;SDS011;15994;51.796;13.006;2023-05-07T11:38:34;4.60;;;3.40;;
28862;SDS011;15994;51.796;13.006;2023-05-07T11:41:03;4.88;;;3.45;;
28862;SDS011;15994;51.796;13.006;2023-05-07T11:43:30;6.00;;;3.67;;
28862;SDS011;15994;51.796;13.006;2023-05-07T11:48:44;3.42;;;2.70;;
28862;SDS011;15994;51.796;13.006;2023-05-07T11:51:11;4.50;;;2.70;;
28862;SDS011;15994;51.796;13.006;2023-05-07T11:53:39;4.70;;;2.60;;
28862;SDS011;15994;51.796;13.006;2023-05-07T11:56:11;4.55;;;2.97;;
28862;SDS011;15994;51.796;13.006;2023-05-07T11:58:39;5.28;;;3.10;;
28862;SDS011;15994;51.796;13.006;2023-05-07T12:01:10;3.65;;;2.63;;
28862;SDS011;15994;51.796;13.006;2023-05-07T12:03:39;4.15;;;2.80;;
28862;SDS011;15994;51.796;13.006;2023-05-07T12:06:08;5.13;;;3.03;;
28862;SDS011;15994;51.796;13.006;2023-05-07T12:08:38;4.65;;;3.25;;
28862;SDS011;15994;51.796;13.006;2023-05-07T12:11:07;5.18;;;3.40;;
28862;SDS011;15994;51.796;13.006;2023-05-07T12:13:36;5.50;;;3.30;;
28862;SDS011;15994;51.796;13.006;2023-05-07T12:16:03;6.28;;;3.15;;
28862;SDS011;15994;51.796;13.006;2023-05-07T12:18:31;3.90;;;2.75;;
28862;SDS011;15994;51.796;13.006;2023-05-07T12:20:58;4.90;;;2.63;;
28862;SDS011;15994;51.796;13.006;2023-05-07T12:23:25;4.15;;;2.72;;
28862;SDS011;15994;51.796;13.006;2023-05-07T12:25:52;6.38;;;2.85;;
28862;SDS011;15994;51.796;13.006;2023-05-07T12:28:19;3.67;;;2.88;;
28862;SDS011;15994;51.796;13.006;2023-05-07T12:30:46;4.30;;;2.75;;
28862;SDS011;15994;51.796;13.006;2023-05-07T12:33:18;4.25;;;2.72;;
28862;SDS011;15994;51.796;13.006;2023-05-07T12:35:47;3.47;;;2.85;;
28862;SDS011;15994;51.796;13.006;2023-05-07T12:38:14;3.92;;;2.60;;
28862;SDS011;15994;51.796;13.006;2023-05-07T12:40:43;4.20;;;2.30;;
28862;SDS011;15994;51.796;13.006;2023-05-07T12:43:15;3.95;;;2.40;;
28862;SDS011;15994;51.796;13.006;2023-05-07T12:45:43;3.42;;;2.60;;
28862;SDS011;15994;51.796;13.006;2023-05-07T12:48:10;4.13;;;2.70;;
28862;SDS011;15994;51.796;13.006;2023-05-07T12:50:37;3.60;;;2.38;;
28862;SDS011;15994;51.796;13.006;2023-05-07T12:53:04;3.92;;;2.60;;
28862;SDS011;15994;51.796;13.006;2023-05-07T12:55:34;3.42;;;2.30;;
28862;SDS011;15994;51.796;13.006;2023-05-07T12:58:20;3.90;;;2.50;;
28862;SDS011;15994;51.796;13.006;2023-05-07T13:00:51;4.22;;;2.60;;
28862;SDS011;15994;51.796;13.006;2023-05-07T13:03:22;4.10;;;2.63;;
28862;SDS011;15994;51.796;13.006;2023-05-07T13:05:50;3.95;;;2.40;;
28862;SDS011;15994;51.796;13.006;2023-05-07T13:08:36;4.05;;;2.20;;
28862;SDS011;15994;51.796;13.006;2023-05-07T13:11:06;3.92;;;2.53;;
28862;SDS011;15994;51.796;13.006;2023-05-07T13:13:35;3.15;;;2.17;;
28862;SDS011;15994;51.796;13.006;2023-05-07T13:16:02;3.42;;;2.40;;
28862;SDS011;15994;51.796;13.006;2023-05-07T13:18:30;3.78;;;2.75;;
28862;SDS011;15994;51.796;13.006;2023-05-07T13:20:57;4.32;;;2.53;;
28862;SDS011;15994;51.796;13.006;2023-05-07T13:23:25;4.30;;;2.47;;
28862;SDS011;15994;51.796;13.006;2023-05-07T13:25:52;3.35;;;2.72;;
28862;SDS011;15994;51.796;13.006;2023-05-07T13:28:19;4.82;;;3.33;;
28862;SDS011;15994;51.796;13.006;2023-05-07T13:30:46;3.88;;;2.97;;
28862;SDS011;15994;51.796;13.006;2023-05-07T13:33:16;6.40;;;3.40;;
28862;SDS011;15994;51.796;13.006;2023-05-07T13:35:43;6.65;;;3.30;;
28862;SDS011;15994;51.796;13.006;2023-05-07T13:38:10;4.00;;;2.80;;
28862;SDS011;15994;51.796;13.006;2023-05-07T13:40:37;4.80;;;2.97;;
28862;SDS011;15994;51.796;13.006;2023-05-07T13:43:05;4.20;;;3.10;;
28862;SDS011;15994;51.796;13.006;2023-05-07T13:45:32;3.67;;;2.65;;
28862;SDS011;15994;51.796;13.006;2023-05-07T13:48:00;4.97;;;3.20;;
28862;SDS011;15994;51.796;13.006;2023-05-07T13:50:26;3.97;;;2.92;;
28862;SDS011;15994;51.796;13.006;2023-05-07T13:52:54;4.43;;;3.05;;
28862;SDS011;15994;51.796;13.006;2023-05-07T13:55:21;4.25;;;3.00;;
28862;SDS011;15994;51.796;13.006;2023-05-07T13:57:55;6.38;;;3.03;;
28862;SDS011;15994;51.796;13.006;2023-05-07T14:00:26;4.82;;;3.75;;
28862;SDS011;15994;51.796;13.006;2023-05-07T14:02:54;5.53;;;3.85;;
28862;SDS011;15994;51.796;13.006;2023-05-07T14:05:22;4.80;;;3.20;;
28862;SDS011;15994;51.796;13.006;2023-05-07T14:07:52;5.22;;;4.15;;
28862;SDS011;15994;51.796;13.006;2023-05-07T14:10:20;4.25;;;3.25;;
28862;SDS011;15994;51.796;13.006;2023-05-07T14:12:46;6.05;;;4.22;;
28862;SDS011;15994;51.796;13.006;2023-05-07T14:15:13;4.07;;;2.83;;
28862;SDS011;15994;51.796;13.006;2023-05-07T14:17:40;5.82;;;3.60;;
28862;SDS011;15994;51.796;13.006;2023-05-07T14:20:07;7.47;;;3.63;;
28862;SDS011;15994;51.796;13.006;2023-05-07T14:22:35;5.25;;;3.33;;
28862;SDS011;15994;51.796;13.006;2023-05-07T14:25:02;3.83;;;3.25;;
28862;SDS011;15994;51.796;13.006;2023-05-07T14:27:28;5.35;;;4.13;;
28862;SDS011;15994;51.796;13.006;2023-05-07T14:29:55;4.65;;;3.70;;
28862;SDS011;15994;51.796;13.006;2023-05-07T14:32:21;5.72;;;3.67;;
28862;SDS011;15994;51.796;13.006;2023-05-07T14:34:48;4.90;;;3.08;;
28862;SDS011;15994;51.796;13.006;2023-05-07T14:37:15;3.67;;;2.83;;
28862;SDS011;15994;51.796;13.006;2023-05-07T14:39:42;4.25;;;2.70;;
28862;SDS011;15994;51.796;13.006;2023-05-07T14:42:09;3.70;;;2.80;;
28862;SDS011;15994;51.796;13.006;2023-05-07T14:44:37;3.85;;;2.50;;
28862;SDS011;15994;51.796;13.006;2023-05-07T14:47:05;3.92;;;2.70;;
28862;SDS011;15994;51.796;13.006;2023-05-07T14:49:33;4.05;;;2.45;;
28862;SDS011;15994;51.796;13.006;2023-05-07T14:51:59;3.78;;;2.85;;
28862;SDS011;15994;51.796;13.006;2023-05-07T14:54:26;4.60;;;2.60;;
28862;SDS011;15994;51.796;13.006;2023-05-07T14:56:53;4.57;;;2.78;;